createdAt,value
2019-03-29T00:00:27.762Z,17.50
2019-03-29T00:06:30.571Z,17.40
2019-03-29T00:12:33.280Z,17.40
2019-03-29T00:18:36.113Z,17.40
2019-03-29T00:24:39.227Z,17.30
2019-03-29T00:30:41.948Z,17.30
2019-03-29T00:36:44.757Z,17.30
2019-03-29T00:42:47.496Z,17.30
2019-03-29T00:48:50.520Z,17.20
2019-03-29T00:54:53.240Z,17.20
2019-03-29T01:00:56.337Z,17.10
2019-03-29T01:06:59.060Z,17.10
2019-03-29T01:13:01.792Z,17.10
2019-03-29T01:19:04.520Z,17.10
2019-03-29T01:25:08.257Z,17.00
2019-03-29T01:31:11.369Z,17.00
2019-03-29T01:37:14.112Z,17.00
2019-03-29T01:43:16.912Z,17.00
2019-03-29T01:49:19.914Z,16.90
2019-03-29T01:55:23.078Z,16.90
2019-03-29T02:01:26.179Z,16.90
2019-03-29T02:07:28.904Z,16.90
2019-03-29T02:13:31.633Z,16.80
2019-03-29T02:19:34.364Z,16.80
2019-03-29T02:25:37.091Z,16.80
2019-03-29T02:31:42.185Z,16.80
2019-03-29T02:37:44.612Z,16.70
2019-03-29T02:43:47.354Z,16.70
2019-03-29T02:49:50.386Z,16.70
2019-03-29T02:55:53.397Z,16.70
2019-03-29T03:01:56.411Z,16.70
2019-03-29T03:07:59.137Z,16.60
2019-03-29T03:14:01.869Z,16.60
2019-03-29T03:20:14.311Z,16.60
2019-03-29T03:26:13.828Z,16.60
2019-03-29T03:32:16.670Z,16.50
2019-03-29T03:38:19.482Z,16.50
2019-03-29T03:44:22.241Z,16.50
2019-03-29T03:50:39.409Z,16.50
2019-03-29T03:56:42.202Z,16.40
2019-03-29T04:02:45.022Z,16.40
2019-03-29T04:08:47.789Z,16.40
2019-03-29T04:14:50.525Z,16.40
2019-03-29T04:20:53.252Z,16.40
2019-03-29T04:26:55.993Z,16.50
2019-03-29T04:32:58.721Z,16.50
2019-03-29T04:39:01.803Z,16.40
2019-03-29T04:45:05.293Z,16.40
2019-03-29T04:51:08.023Z,16.50
2019-03-29T04:57:10.758Z,16.50
2019-03-29T05:03:13.480Z,16.60
2019-03-29T05:09:16.284Z,16.60
2019-03-29T05:15:19.020Z,16.70
2019-03-29T05:21:21.749Z,16.70
2019-03-29T05:27:24.649Z,16.80
2019-03-29T05:33:27.384Z,16.80
2019-03-29T05:39:30.124Z,16.90
2019-03-29T05:45:33.172Z,16.90
2019-03-29T05:51:36.149Z,17.00
2019-03-29T05:57:38.880Z,17.00
2019-03-29T06:03:41.622Z,17.10
2019-03-29T06:09:44.348Z,17.10
2019-03-29T06:15:47.080Z,17.20
2019-03-29T06:21:49.853Z,17.20
2019-03-29T06:27:52.588Z,17.30
2019-03-29T06:33:55.338Z,17.30
2019-03-29T06:39:58.428Z,17.30
2019-03-29T06:46:01.160Z,17.30
2019-03-29T06:52:03.900Z,17.30
2019-03-29T06:58:06.962Z,17.20
2019-03-29T07:04:09.693Z,17.30
2019-03-29T07:10:12.427Z,17.30
2019-03-29T07:16:15.152Z,17.30
2019-03-29T07:22:18.028Z,17.30
2019-03-29T07:28:21.105Z,17.40
2019-03-29T07:34:23.832Z,17.40
2019-03-29T07:40:26.573Z,17.30
2019-03-29T07:46:29.303Z,17.30
2019-03-29T07:52:32.060Z,17.30
2019-03-29T07:58:34.795Z,17.40
2019-03-29T08:04:37.573Z,17.50
2019-03-29T08:10:40.363Z,17.60
2019-03-29T08:16:43.096Z,17.70
2019-03-29T08:22:45.835Z,17.70
2019-03-29T08:28:48.576Z,17.80
2019-03-29T08:34:51.313Z,17.90
2019-03-29T08:40:54.040Z,18.00
2019-03-29T08:46:57.060Z,18.00
2019-03-29T08:52:59.796Z,18.10
2019-03-29T08:59:02.575Z,18.20
2019-03-29T09:05:05.893Z,18.20
2019-03-29T09:11:08.624Z,18.20
2019-03-29T09:17:11.349Z,18.20
2019-03-29T09:23:14.084Z,18.30
2019-03-29T09:29:16.812Z,18.30
2019-03-29T09:35:19.548Z,18.30
2019-03-29T09:41:22.300Z,18.30
2019-03-29T09:47:25.041Z,18.30
2019-03-29T09:53:27.770Z,18.30
2019-03-29T09:59:30.491Z,18.40
2019-03-29T10:05:35.068Z,18.40
2019-03-29T10:11:37.788Z,18.50
2019-03-29T10:17:40.512Z,18.60
2019-03-29T10:23:43.501Z,18.60
2019-03-29T10:29:46.561Z,18.70
2019-03-29T10:35:52.465Z,18.60
2019-03-29T10:41:53.821Z,18.70
2019-03-29T10:47:56.876Z,18.80
2019-03-29T10:53:59.608Z,18.80
2019-03-29T11:00:04.331Z,18.80
2019-03-29T11:06:07.056Z,18.90
2019-03-29T11:12:09.792Z,19.00
2019-03-29T11:18:12.588Z,19.10
2019-03-29T11:24:15.324Z,19.20
2019-03-29T11:30:18.370Z,19.20
2019-03-29T11:36:21.107Z,19.30
2019-03-29T11:42:23.844Z,19.30
2019-03-29T11:48:29.408Z,19.40
2019-03-29T11:54:31.064Z,19.50
2019-03-29T12:00:36.092Z,19.50
2019-03-29T12:06:38.815Z,19.60
2019-03-29T12:12:41.550Z,19.60
2019-03-29T12:18:44.281Z,19.70
2019-03-29T12:24:47.012Z,19.70
2019-03-29T12:30:49.748Z,19.80
2019-03-29T12:36:52.515Z,19.90
2019-03-29T12:42:55.255Z,19.90
2019-03-29T12:48:57.984Z,19.90
2019-03-29T12:55:00.715Z,20.00
2019-03-29T13:01:03.737Z,20.00
2019-03-29T13:07:06.460Z,20.10
2019-03-29T13:13:09.552Z,20.20
2019-03-29T13:19:12.285Z,20.30
2019-03-29T13:25:15.022Z,20.40
2019-03-29T13:31:18.076Z,20.40
2019-03-29T13:37:20.799Z,20.50
2019-03-29T13:43:23.768Z,20.50
2019-03-29T13:49:26.508Z,20.60
2019-03-29T13:55:29.236Z,20.60
2019-03-29T14:01:31.967Z,20.60
2019-03-29T14:07:34.688Z,20.70
2019-03-29T14:13:37.416Z,20.70
2019-03-29T14:19:40.151Z,20.80
2019-03-29T14:25:42.880Z,20.80
2019-03-29T14:31:45.611Z,21.00
2019-03-29T14:37:48.356Z,21.10
2019-03-29T14:43:51.075Z,21.10
2019-03-29T14:49:53.799Z,21.10
2019-03-29T14:55:56.545Z,21.20
2019-03-29T15:01:59.277Z,21.20
2019-03-29T15:08:02.100Z,21.20
2019-03-29T15:14:10.688Z,21.30
2019-03-29T15:20:14.930Z,21.30
2019-03-29T15:26:17.728Z,21.30
2019-03-29T15:32:20.455Z,21.30
2019-03-29T15:38:23.194Z,21.30
2019-03-29T15:44:26.000Z,21.30
2019-03-29T15:50:28.732Z,21.40
2019-03-29T15:56:31.463Z,21.40
2019-03-29T16:02:34.484Z,21.40
2019-03-29T16:08:37.217Z,21.50
2019-03-29T16:14:39.948Z,21.50
2019-03-29T16:20:42.680Z,21.50
2019-03-29T16:26:45.408Z,21.50
2019-03-29T16:32:48.147Z,21.50
2019-03-29T16:38:50.878Z,21.60
2019-03-29T16:44:53.616Z,21.50
2019-03-29T16:50:56.380Z,21.50
2019-03-29T16:56:59.108Z,21.50
2019-03-29T17:03:01.845Z,21.50
2019-03-29T17:09:06.016Z,21.50
2019-03-29T17:15:08.748Z,21.50
2019-03-29T17:21:11.921Z,21.50
2019-03-29T17:27:14.793Z,21.40
2019-03-29T17:33:17.540Z,21.50
2019-03-29T17:39:22.152Z,21.40
2019-03-29T17:45:25.125Z,21.40
2019-03-29T17:51:27.858Z,21.40
2019-03-29T17:57:30.620Z,21.40
2019-03-29T18:03:33.348Z,21.40
2019-03-29T18:09:36.119Z,21.30
2019-03-29T18:15:38.852Z,21.30
2019-03-29T18:21:41.904Z,21.20
2019-03-29T18:27:44.644Z,21.20
2019-03-29T18:33:47.716Z,21.20
2019-03-29T18:39:50.452Z,21.20
2019-03-29T18:45:53.188Z,21.20
2019-03-29T18:51:55.956Z,21.20
2019-03-29T18:57:58.683Z,21.10
2019-03-29T19:04:01.486Z,21.10
2019-03-29T19:10:05.704Z,21.00
2019-03-29T19:16:08.448Z,21.00
2019-03-29T19:22:11.186Z,21.00
2019-03-29T19:28:13.937Z,20.90
2019-03-29T19:34:16.848Z,20.90
2019-03-29T19:40:19.604Z,20.90
2019-03-29T19:46:22.344Z,20.80
2019-03-29T19:52:25.385Z,20.80
2019-03-29T19:58:28.417Z,20.80
2019-03-29T20:04:31.213Z,20.70
2019-03-29T20:10:33.948Z,20.60
2019-03-29T20:16:36.679Z,20.60
2019-03-29T20:22:39.407Z,20.60
2019-03-29T20:28:42.156Z,20.50
2019-03-29T20:34:45.283Z,20.50
2019-03-29T20:40:48.215Z,20.50
2019-03-29T20:46:51.028Z,20.50
2019-03-29T20:52:53.753Z,20.40
2019-03-29T20:58:56.724Z,20.40
2019-03-29T21:04:59.457Z,20.30
2019-03-29T21:11:02.219Z,20.30
2019-03-29T21:17:05.332Z,20.20
2019-03-29T21:23:08.061Z,20.20
2019-03-29T21:29:10.855Z,20.10
2019-03-29T21:35:13.579Z,20.10
2019-03-29T21:41:16.309Z,20.10
2019-03-29T21:47:19.337Z,20.10
2019-03-29T21:53:22.080Z,20.00
2019-03-29T21:59:25.232Z,20.00
2019-03-29T22:05:28.112Z,19.90
2019-03-29T22:11:31.173Z,19.90
2019-03-29T22:17:33.948Z,19.80
2019-03-29T22:23:36.686Z,19.70
2019-03-29T22:29:39.416Z,19.70
2019-03-29T22:35:42.149Z,19.60
2019-03-29T22:41:44.886Z,19.50
2019-03-29T22:47:47.723Z,19.50
2019-03-29T22:53:50.515Z,19.40
2019-03-29T22:59:53.237Z,19.40
2019-03-29T23:05:56.033Z,19.30
2019-03-29T23:11:58.772Z,19.30
2019-03-29T23:18:01.500Z,19.30
2019-03-29T23:24:04.244Z,19.20
2019-03-29T23:30:07.249Z,19.10
2019-03-29T23:36:29.550Z,19.00
2019-03-29T23:42:32.280Z,18.90
2019-03-29T23:48:35.005Z,18.90
2019-03-29T23:54:38.056Z,18.80
